sensor_id;sensor_type;location;lat;lon;timestamp;pressure;altitude;pressure_sealevel;temperature;humidity
53932;BME280;39844;52.496;13.482;2023-04-07T00:00:46;101794.50;;;3.66;65.97
53932;BME280;39844;52.496;13.482;2023-04-07T00:03:11;101793.47;;;3.62;66.41
53932;BME280;39844;52.496;13.482;2023-04-07T00:05:37;101795.88;;;3.58;65.74
53932;BME280;39844;52.496;13.482;2023-04-07T00:08:02;101797.41;;;3.53;66.12
53932;BME280;39844;52.496;13.482;2023-04-07T00:10:27;101796.31;;;3.48;66.36
53932;BME280;39844;52.496;13.482;2023-04-07T00:12:53;101796.09;;;3.43;66.73
53932;BME280;39844;52.496;13.482;2023-04-07T00:15:18;101794.34;;;3.42;66.39
53932;BME280;39844;52.496;13.482;2023-04-07T00:17:43;101784.78;;;3.41;65.10
53932;BME280;39844;52.496;13.482;2023-04-07T00:20:09;101794.34;;;3.42;65.69
53932;BME280;39844;52.496;13.482;2023-04-07T00:22:34;101789.97;;;3.41;64.89
53932;BME280;39844;52.496;13.482;2023-04-07T00:25:00;101794.50;;;3.45;63.19
53932;BME280;39844;52.496;13.482;2023-04-07T00:27:25;101786.06;;;3.51;61.88
53932;BME280;39844;52.496;13.482;2023-04-07T00:29:50;101780.34;;;3.59;60.74
53932;BME280;39844;52.496;13.482;2023-04-07T00:32:16;101778.16;;;3.68;59.94
53932;BME280;39844;52.496;13.482;2023-04-07T00:34:41;101779.22;;;3.73;59.24
53932;BME280;39844;52.496;13.482;2023-04-07T00:37:06;101784.63;;;3.79;58.47
53932;BME280;39844;52.496;13.482;2023-04-07T00:39:32;101785.78;;;3.86;57.45
53932;BME280;39844;52.496;13.482;2023-04-07T00:41:57;101769.50;;;3.90;57.45
53932;BME280;39844;52.496;13.482;2023-04-07T00:44:22;101780.00;;;3.93;57.11
53932;BME280;39844;52.496;13.482;2023-04-07T00:46:48;101775.75;;;3.95;56.87
53932;BME280;39844;52.496;13.482;2023-04-07T00:49:14;101773.22;;;3.97;56.84
53932;BME280;39844;52.496;13.482;2023-04-07T00:51:40;101775.81;;;3.97;56.93
53932;BME280;39844;52.496;13.482;2023-04-07T00:54:05;101771.44;;;3.96;56.89
53932;BME280;39844;52.496;13.482;2023-04-07T00:56:31;101773.16;;;3.95;56.61
53932;BME280;39844;52.496;13.482;2023-04-07T00:58:56;101762.72;;;3.94;56.81
53932;BME280;39844;52.496;13.482;2023-04-07T01:01:24;101760.97;;;3.94;56.34
53932;BME280;39844;52.496;13.482;2023-04-07T01:03:56;101753.16;;;3.93;57.03
53932;BME280;39844;52.496;13.482;2023-04-07T01:06:25;101760.00;;;3.91;56.03
53932;BME280;39844;52.496;13.482;2023-04-07T01:08:57;101757.31;;;3.89;56.96
53932;BME280;39844;52.496;13.482;2023-04-07T01:12:15;101751.13;;;3.86;58.07
53932;BME280;39844;52.496;13.482;2023-04-07T01:14:20;101751.81;;;3.81;57.57
53932;BME280;39844;52.496;13.482;2023-04-07T01:16:51;101752.59;;;3.79;57.52
53932;BME280;39844;52.496;13.482;2023-04-07T01:19:31;101749.06;;;3.77;58.95
53932;BME280;39844;52.496;13.482;2023-04-07T01:21:58;101752.38;;;3.73;59.88
53932;BME280;39844;52.496;13.482;2023-04-07T01:30:08;101738.69;;;3.56;60.60
53932;BME280;39844;52.496;13.482;2023-04-07T01:32:35;101745.50;;;3.53;61.19
53932;BME280;39844;52.496;13.482;2023-04-07T01:35:02;101743.56;;;3.49;60.98
53932;BME280;39844;52.496;13.482;2023-04-07T01:37:28;101740.81;;;3.44;61.88
53932;BME280;39844;52.496;13.482;2023-04-07T01:39:54;101742.44;;;3.42;61.22
53932;BME280;39844;52.496;13.482;2023-04-07T01:42:20;101742.28;;;3.38;61.39
53932;BME280;39844;52.496;13.482;2023-04-07T01:44:46;101740.34;;;3.34;61.37
53932;BME280;39844;52.496;13.482;2023-04-07T01:47:13;101742.81;;;3.31;61.88
53932;BME280;39844;52.496;13.482;2023-04-07T01:49:39;101743.56;;;3.28;61.76
53932;BME280;39844;52.496;13.482;2023-04-07T01:52:06;101739.16;;;3.26;61.53
53932;BME280;39844;52.496;13.482;2023-04-07T01:54:32;101744.28;;;3.24;60.39
53932;BME280;39844;52.496;13.482;2023-04-07T01:56:58;101734.03;;;3.27;59.76
53932;BME280;39844;52.496;13.482;2023-04-07T01:59:24;101740.31;;;3.32;59.80
53932;BME280;39844;52.496;13.482;2023-04-07T02:01:49;101738.59;;;3.33;59.55
53932;BME280;39844;52.496;13.482;2023-04-07T02:07:05;101733.72;;;3.40;58.36
53932;BME280;39844;52.496;13.482;2023-04-07T02:09:33;101732.97;;;3.43;58.27
53932;BME280;39844;52.496;13.482;2023-04-07T02:12:04;101728.72;;;3.45;58.50
53932;BME280;39844;52.496;13.482;2023-04-07T02:14:32;101724.41;;;3.45;58.27
53932;BME280;39844;52.496;13.482;2023-04-07T02:16:58;101727.00;;;3.45;59.15
53932;BME280;39844;52.496;13.482;2023-04-07T02:19:24;101721.69;;;3.42;59.84
53932;BME280;39844;52.496;13.482;2023-04-07T02:21:50;101721.63;;;3.41;60.34
53932;BME280;39844;52.496;13.482;2023-04-07T02:24:19;101714.50;;;3.35;60.77
53932;BME280;39844;52.496;13.482;2023-04-07T02:26:44;101719.53;;;3.32;61.24
53932;BME280;39844;52.496;13.482;2023-04-07T02:29:09;101721.06;;;3.27;61.18
53932;BME280;39844;52.496;13.482;2023-04-07T02:31:35;101720.00;;;3.22;61.27
53932;BME280;39844;52.496;13.482;2023-04-07T02:34:00;101720.66;;;3.18;61.45
53932;BME280;39844;52.496;13.482;2023-04-07T02:36:25;101715.38;;;3.15;62.06
53932;BME280;39844;52.496;13.482;2023-04-07T02:38:51;101723.97;;;3.14;62.47
53932;BME280;39844;52.496;13.482;2023-04-07T02:41:16;101720.34;;;3.10;62.31
53932;BME280;39844;52.496;13.482;2023-04-07T02:43:41;101720.28;;;3.09;62.39
53932;BME280;39844;52.496;13.482;2023-04-07T02:46:06;101721.06;;;3.06;62.11
53932;BME280;39844;52.496;13.482;2023-04-07T02:48:32;101723.59;;;3.05;62.23
53932;BME280;39844;52.496;13.482;2023-04-07T02:50:57;101719.22;;;3.04;62.34
53932;BME280;39844;52.496;13.482;2023-04-07T02:53:23;101717.44;;;3.03;62.86
53932;BME280;39844;52.496;13.482;2023-04-07T02:55:48;101713.00;;;3.00;62.61
53932;BME280;39844;52.496;13.482;2023-04-07T02:58:13;101717.38;;;3.01;63.49
53932;BME280;39844;52.496;13.482;2023-04-07T03:00:38;101721.69;;;3.01;63.28
53932;BME280;39844;52.496;13.482;2023-04-07T03:03:04;101719.84;;;2.98;63.57
53932;BME280;39844;52.496;13.482;2023-04-07T03:05:29;101718.09;;;2.97;63.22
53932;BME280;39844;52.496;13.482;2023-04-07T03:07:54;101716.34;;;2.98;63.85
53932;BME280;39844;52.496;13.482;2023-04-07T03:10:20;101718.00;;;2.96;62.95
53932;BME280;39844;52.496;13.482;2023-04-07T03:12:45;101719.78;;;2.97;62.69
53932;BME280;39844;52.496;13.482;2023-04-07T03:15:10;101715.53;;;2.99;63.02
53932;BME280;39844;52.496;13.482;2023-04-07T03:17:36;101705.19;;;2.99;62.77
53932;BME280;39844;52.496;13.482;2023-04-07T03:20:01;101708.72;;;3.01;63.17
53932;BME280;39844;52.496;13.482;2023-04-07T03:22:26;101700.16;;;3.03;64.24
53932;BME280;39844;52.496;13.482;2023-04-07T03:24:51;101707.06;;;3.03;62.42
53932;BME280;39844;52.496;13.482;2023-04-07T03:27:17;101703.66;;;3.04;63.37
53932;BME280;39844;52.496;13.482;2023-04-07T03:29:42;101705.50;;;3.06;64.02
53932;BME280;39844;52.496;13.482;2023-04-07T03:32:07;101698.75;;;3.10;64.56
53932;BME280;39844;52.496;13.482;2023-04-07T03:34:33;101698.78;;;3.11;64.58
53932;BME280;39844;52.496;13.482;2023-04-07T03:36:58;101697.97;;;3.12;64.53
53932;BME280;39844;52.496;13.482;2023-04-07T03:39:24;101691.94;;;3.13;64.52
53932;BME280;39844;52.496;13.482;2023-04-07T03:41:49;101697.13;;;3.13;63.70
53932;BME280;39844;52.496;13.482;2023-04-07T03:44:14;101693.66;;;3.13;64.52
53932;BME280;39844;52.496;13.482;2023-04-07T03:46:39;101686.84;;;3.15;64.34
53932;BME280;39844;52.496;13.482;2023-04-07T03:49:05;101696.38;;;3.16;64.76
53932;BME280;39844;52.496;13.482;2023-04-07T03:51:30;101685.06;;;3.14;63.51
53932;BME280;39844;52.496;13.482;2023-04-07T03:53:55;101688.56;;;3.14;63.91
53932;BME280;39844;52.496;13.482;2023-04-07T03:56:21;101683.38;;;3.14;64.36
53932;BME280;39844;52.496;13.482;2023-04-07T03:58:47;101678.97;;;3.13;64.11
53932;BME280;39844;52.496;13.482;2023-04-07T04:01:12;101685.97;;;3.14;64.91
53932;BME280;39844;52.496;13.482;2023-04-07T04:03:37;101683.38;;;3.14;63.89
53932;BME280;39844;52.496;13.482;2023-04-07T04:06:03;101682.59;;;3.17;63.82
53932;BME280;39844;52.496;13.482;2023-04-07T04:08:28;101686.13;;;3.19;62.81
53932;BME280;39844;52.496;13.482;2023-04-07T04:10:53;101685.38;;;3.22;62.27
53932;BME280;39844;52.496;13.482;2023-04-07T04:13:19;101682.91;;;3.25;62.02
53932;BME280;39844;52.496;13.482;2023-04-07T04:15:44;101681.31;;;3.28;61.51
53932;BME280;39844;52.496;13.482;2023-04-07T04:18:09;101689.22;;;3.31;61.13
53932;BME280;39844;52.496;13.482;2023-04-07T04:20:35;101689.41;;;3.36;62.55
53932;BME280;39844;52.496;13.482;2023-04-07T04:23:00;101690.28;;;3.36;62.49
53932;BME280;39844;52.496;13.482;2023-04-07T04:25:25;101691.22;;;3.38;62.81
53932;BME280;39844;52.496;13.482;2023-04-07T04:27:50;101689.53;;;3.39;63.11
53932;BME280;39844;52.496;13.482;2023-04-07T04:30:16;101693.00;;;3.39;62.98
53932;BME280;39844;52.496;13.482;2023-04-07T04:32:41;101692.22;;;3.40;62.92
53932;BME280;39844;52.496;13.482;2023-04-07T04:35:07;101693.06;;;3.41;63.21
53932;BME280;39844;52.496;13.482;2023-04-07T04:37:32;101686.13;;;3.40;62.77
53932;BME280;39844;52.496;13.482;2023-04-07T04:39:57;101692.22;;;3.40;62.96
53932;BME280;39844;52.496;13.482;2023-04-07T04:42:23;101688.78;;;3.41;64.45
53932;BME280;39844;52.496;13.482;2023-04-07T04:44:48;101693.06;;;3.41;63.31
53932;BME280;39844;52.496;13.482;2023-04-07T04:47:13;101694.84;;;3.42;63.05
53932;BME280;39844;52.496;13.482;2023-04-07T04:49:39;101700.09;;;3.43;62.74
53932;BME280;39844;52.496;13.482;2023-04-07T04:52:04;101690.69;;;3.45;62.58
53932;BME280;39844;52.496;13.482;2023-04-07T04:54:29;101699.53;;;3.50;62.20
53932;BME280;39844;52.496;13.482;2023-04-07T04:56:54;101702.19;;;3.52;61.75
53932;BME280;39844;52.496;13.482;2023-04-07T04:59:20;101704.84;;;3.53;61.76
53932;BME280;39844;52.496;13.482;2023-04-07T05:01:45;101701.50;;;3.56;61.31
53932;BME280;39844;52.496;13.482;2023-04-07T05:04:10;101704.19;;;3.59;61.12
53932;BME280;39844;52.496;13.482;2023-04-07T05:06:36;101707.75;;;3.61;61.18
53932;BME280;39844;52.496;13.482;2023-04-07T05:09:01;101709.63;;;3.65;61.11
53932;BME280;39844;52.496;13.482;2023-04-07T05:11:26;101703.69;;;3.67;60.83
53932;BME280;39844;52.496;13.482;2023-04-07T05:13:51;101705.50;;;3.70;60.27
53932;BME280;39844;52.496;13.482;2023-04-07T05:16:17;101707.38;;;3.74;60.68
53932;BME280;39844;52.496;13.482;2023-04-07T05:18:42;101708.41;;;3.77;60.33
53932;BME280;39844;52.496;13.482;2023-04-07T05:21:07;101706.75;;;3.79;60.45
53932;BME280;39844;52.496;13.482;2023-04-07T05:23:33;101711.25;;;3.83;60.56
53932;BME280;39844;52.496;13.482;2023-04-07T05:25:59;101701.84;;;3.87;60.43
53932;BME280;39844;52.496;13.482;2023-04-07T05:28:24;101702.88;;;3.91;60.34
53932;BME280;39844;52.496;13.482;2023-04-07T05:30:49;101697.78;;;3.94;60.38
53932;BME280;39844;52.496;13.482;2023-04-07T05:33:15;101696.13;;;3.96;60.27
53932;BME280;39844;52.496;13.482;2023-04-07T05:35:40;101699.63;;;3.96;60.45
53932;BME280;39844;52.496;13.482;2023-04-07T05:38:05;101701.44;;;3.99;60.29
53932;BME280;39844;52.496;13.482;2023-04-07T05:40:31;101698.13;;;4.03;60.72
53932;BME280;39844;52.496;13.482;2023-04-07T05:42:56;101708.63;;;4.06;60.70
53932;BME280;39844;52.496;13.482;2023-04-07T05:45:22;101694.00;;;4.08;60.87
53932;BME280;39844;52.496;13.482;2023-04-07T05:47:47;101695.91;;;4.12;61.16
53932;BME280;39844;52.496;13.482;2023-04-07T05:50:12;101700.47;;;4.19;61.50
53932;BME280;39844;52.496;13.482;2023-04-07T05:52:38;101699.75;;;4.23;61.07
53932;BME280;39844;52.496;13.482;2023-04-07T05:55:03;101693.75;;;4.24;60.34
53932;BME280;39844;52.496;13.482;2023-04-07T05:57:29;101698.16;;;4.26;60.28
53932;BME280;39844;52.496;13.482;2023-04-07T05:59:54;101701.66;;;4.27;60.11
53932;BME280;39844;52.496;13.482;2023-04-07T06:02:19;101700.13;;;4.32;60.58
53932;BME280;39844;52.496;13.482;2023-04-07T06:04:44;101711.56;;;4.37;60.56
53932;BME280;39844;52.496;13.482;2023-04-07T06:07:10;101713.44;;;4.41;60.13
53932;BME280;39844;52.496;13.482;2023-04-07T06:09:35;101703.97;;;4.43;60.03
53932;BME280;39844;52.496;13.482;2023-04-07T06:12:01;101708.47;;;4.47;60.00
53932;BME280;39844;52.496;13.482;2023-04-07T06:14:26;101706.91;;;4.52;59.85
53932;BME280;39844;52.496;13.482;2023-04-07T06:16:51;101713.09;;;4.56;59.65
53932;BME280;39844;52.496;13.482;2023-04-07T06:19:17;101709.69;;;4.57;59.90
53932;BME280;39844;52.496;13.482;2023-04-07T06:21:44;101710.69;;;4.60;59.71
53932;BME280;39844;52.496;13.482;2023-04-07T06:24:10;101716.81;;;4.62;60.36
53932;BME280;39844;52.496;13.482;2023-04-07T06:26:35;101713.38;;;4.63;60.08
53932;BME280;39844;52.496;13.482;2023-04-07T06:29:00;101716.84;;;4.64;59.76
53932;BME280;39844;52.496;13.482;2023-04-07T06:31:27;101726.38;;;4.63;59.88
53932;BME280;39844;52.496;13.482;2023-04-07T06:33:52;101723.78;;;4.63;60.16
53932;BME280;39844;52.496;13.482;2023-04-07T06:36:17;101729.09;;;4.66;60.51
53932;BME280;39844;52.496;13.482;2023-04-07T06:38:43;101723.06;;;4.67;60.44
53932;BME280;39844;52.496;13.482;2023-04-07T06:41:08;101730.13;;;4.71;60.97
53932;BME280;39844;52.496;13.482;2023-04-07T06:43:33;101727.59;;;4.73;60.79
53932;BME280;39844;52.496;13.482;2023-04-07T06:45:59;101728.47;;;4.73;60.76
53932;BME280;39844;52.496;13.482;2023-04-07T06:48:24;101728.59;;;4.76;61.19
53932;BME280;39844;52.496;13.482;2023-04-07T06:50:49;101722.50;;;4.76;60.91
53932;BME280;39844;52.496;13.482;2023-04-07T06:53:15;101732.19;;;4.80;61.25
53932;BME280;39844;52.496;13.482;2023-04-07T06:55:40;101727.97;;;4.83;60.77
53932;BME280;39844;52.496;13.482;2023-04-07T06:58:06;101728.94;;;4.85;61.33
53932;BME280;39844;52.496;13.482;2023-04-07T07:00:33;101729.97;;;4.90;60.97
53932;BME280;39844;52.496;13.482;2023-04-07T07:02:58;101730.16;;;4.96;61.95
53932;BME280;39844;52.496;13.482;2023-04-07T07:05:24;101727.78;;;5.02;61.28
53932;BME280;39844;52.496;13.482;2023-04-07T07:07:49;101738.19;;;5.02;60.96
53932;BME280;39844;52.496;13.482;2023-04-07T07:10:14;101727.00;;;5.05;61.41
53932;BME280;39844;52.496;13.482;2023-04-07T07:12:40;101730.53;;;5.07;61.27
53932;BME280;39844;52.496;13.482;2023-04-07T07:15:06;101725.47;;;5.11;61.61
53932;BME280;39844;52.496;13.482;2023-04-07T07:17:31;101731.00;;;5.21;61.86
53932;BME280;39844;52.496;13.482;2023-04-07T07:19:56;101719.06;;;5.27;61.62
53932;BME280;39844;52.496;13.482;2023-04-07T07:22:22;101725.47;;;5.37;61.44
53932;BME280;39844;52.496;13.482;2023-04-07T07:24:47;101732.84;;;5.50;61.25
53932;BME280;39844;52.496;13.482;2023-04-07T07:27:12;101729.94;;;5.67;61.34
53932;BME280;39844;52.496;13.482;2023-04-07T07:29:38;101731.47;;;5.86;60.55
53932;BME280;39844;52.496;13.482;2023-04-07T07:32:03;101730.06;;;5.97;59.58
53932;BME280;39844;52.496;13.482;2023-04-07T07:34:28;101733.84;;;6.07;58.95
53932;BME280;39844;52.496;13.482;2023-04-07T07:36:53;101731.47;;;6.14;59.12
53932;BME280;39844;52.496;13.482;2023-04-07T07:39:19;101731.63;;;6.20;58.03
53932;BME280;39844;52.496;13.482;2023-04-07T07:41:44;101729.03;;;6.20;57.40
53932;BME280;39844;52.496;13.482;2023-04-07T07:44:09;101741.34;;;6.26;57.50
53932;BME280;39844;52.496;13.482;2023-04-07T07:46:35;101732.00;;;6.32;57.34
53932;BME280;39844;52.496;13.482;2023-04-07T07:49:00;101735.53;;;6.34;56.16
53932;BME280;39844;52.496;13.482;2023-04-07T07:51:25;101735.78;;;6.44;56.36
53932;BME280;39844;52.496;13.482;2023-04-07T07:53:51;101732.69;;;6.55;56.12
53932;BME280;39844;52.496;13.482;2023-04-07T07:56:17;101730.28;;;6.63;55.84
53932;BME280;39844;52.496;13.482;2023-04-07T07:58:42;101734.03;;;6.72;54.39
53932;BME280;39844;52.496;13.482;2023-04-07T08:01:08;101735.25;;;6.85;54.83
53932;BME280;39844;52.496;13.482;2023-04-07T08:03:33;101743.47;;;7.00;54.06
53932;BME280;39844;52.496;13.482;2023-04-07T08:05:58;101745.19;;;6.99;52.25
53932;BME280;39844;52.496;13.482;2023-04-07T08:08:24;101747.78;;;6.98;51.10
53932;BME280;39844;52.496;13.482;2023-04-07T08:10:49;101744.41;;;7.02;51.96
53932;BME280;39844;52.496;13.482;2023-04-07T08:13:14;101745.56;;;7.13;51.41
53932;BME280;39844;52.496;13.482;2023-04-07T08:15:39;101744.97;;;7.23;51.66
53932;BME280;39844;52.496;13.482;2023-04-07T08:18:05;101739.97;;;7.32;52.03
53932;BME280;39844;52.496;13.482;2023-04-07T08:20:31;101747.34;;;7.48;51.02
53932;BME280;39844;52.496;13.482;2023-04-07T08:22:56;101743.13;;;7.53;50.43
53932;BME280;39844;52.496;13.482;2023-04-07T08:25:22;101735.53;;;7.62;50.40
53932;BME280;39844;52.496;13.482;2023-04-07T08:27:47;101739.06;;;7.64;50.62
53932;BME280;39844;52.496;13.482;2023-04-07T08:30:12;101738.16;;;7.64;50.29
53932;BME280;39844;52.496;13.482;2023-04-07T08:32:40;101741.63;;;7.63;49.47
53932;BME280;39844;52.496;13.482;2023-04-07T08:35:06;101747.00;;;7.69;49.88
53932;BME280;39844;52.496;13.482;2023-04-07T08:37:32;101743.59;;;7.73;49.03
53932;BME280;39844;52.496;13.482;2023-04-07T08:39:59;101741.16;;;7.81;49.47
53932;BME280;39844;52.496;13.482;2023-04-07T08:42:27;101746.22;;;7.73;48.24
53932;BME280;39844;52.496;13.482;2023-04-07T08:44:55;101737.34;;;7.67;48.10
53932;BME280;39844;52.496;13.482;2023-04-07T08:47:21;101736.44;;;7.64;48.34
53932;BME280;39844;52.496;13.482;2023-04-07T08:49:49;101752.88;;;7.60;48.40
53932;BME280;39844;52.496;13.482;2023-04-07T08:52:17;101751.13;;;7.59;48.96
53932;BME280;39844;52.496;13.482;2023-04-07T08:54:46;101751.13;;;7.59;47.48
53932;BME280;39844;52.496;13.482;2023-04-07T08:57:12;101761.41;;;7.53;46.81
53932;BME280;39844;52.496;13.482;2023-04-07T08:59:39;101766.25;;;7.38;46.05
53932;BME280;39844;52.496;13.482;2023-04-07T09:02:05;101766.03;;;7.29;46.42
53932;BME280;39844;52.496;13.482;2023-04-07T09:04:30;101769.31;;;7.22;46.32
53932;BME280;39844;52.496;13.482;2023-04-07T09:06:56;101766.66;;;7.21;46.56
53932;BME280;39844;52.496;13.482;2023-04-07T09:09:21;101769.25;;;7.19;46.67
53932;BME280;39844;52.496;13.482;2023-04-07T09:11:47;101768.09;;;7.10;46.03
53932;BME280;39844;52.496;13.482;2023-04-07T09:14:12;101772.28;;;7.03;46.74
53932;BME280;39844;52.496;13.482;2023-04-07T09:16:38;101764.13;;;6.91;45.88
53932;BME280;39844;52.496;13.482;2023-04-07T09:19:03;101766.38;;;6.79;46.10
53932;BME280;39844;52.496;13.482;2023-04-07T09:21:49;101767.13;;;6.75;46.36
53932;BME280;39844;52.496;13.482;2023-04-07T09:24:28;101774.88;;;6.72;45.87
53932;BME280;39844;52.496;13.482;2023-04-07T09:27:17;101781.78;;;6.70;46.56
53932;BME280;39844;52.496;13.482;2023-04-07T09:29:44;101771.34;;;6.70;47.35
53932;BME280;39844;52.496;13.482;2023-04-07T09:32:10;101778.38;;;6.72;48.07
53932;BME280;39844;52.496;13.482;2023-04-07T09:34:37;101779.50;;;6.82;48.58
53932;BME280;39844;52.496;13.482;2023-04-07T09:37:04;101777.09;;;6.88;48.35
53932;BME280;39844;52.496;13.482;2023-04-07T09:39:30;101774.34;;;6.83;47.81
53932;BME280;39844;52.496;13.482;2023-04-07T09:41:56;101781.97;;;6.76;47.71
53932;BME280;39844;52.496;13.482;2023-04-07T09:44:23;101780.00;;;6.69;47.77
53932;BME280;39844;52.496;13.482;2023-04-07T09:46:53;101779.84;;;6.63;47.91
53932;BME280;39844;52.496;13.482;2023-04-07T09:49:20;101780.56;;;6.59;48.63
53932;BME280;39844;52.496;13.482;2023-04-07T09:51:59;101784.03;;;6.58;48.84
53932;BME280;39844;52.496;13.482;2023-04-07T09:54:41;101780.53;;;6.57;48.90
53932;BME280;39844;52.496;13.482;2023-04-07T09:57:08;101777.03;;;6.57;48.54
53932;BME280;39844;52.496;13.482;2023-04-07T09:59:38;101783.47;;;6.68;48.96
53932;BME280;39844;52.496;13.482;2023-04-07T10:02:04;101778.50;;;6.77;48.74
53932;BME280;39844;52.496;13.482;2023-04-07T10:04:32;101779.28;;;6.74;47.68
53932;BME280;39844;52.496;13.482;2023-04-07T10:06:58;101777.53;;;6.73;47.65
53932;BME280;39844;52.496;13.482;2023-04-07T10:09:27;101786.19;;;6.72;48.14
53932;BME280;39844;52.496;13.482;2023-04-07T10:11:54;101795.00;;;6.76;48.53
53932;BME280;39844;52.496;13.482;2023-04-07T10:14:29;101781.00;;;6.74;48.14
53932;BME280;39844;52.496;13.482;2023-04-07T10:17:06;101788.69;;;6.68;48.20
53932;BME280;39844;52.496;13.482;2023-04-07T10:19:32;101791.28;;;6.68;48.56
53932;BME280;39844;52.496;13.482;2023-04-07T10:22:05;101788.72;;;6.69;49.86
53932;BME280;39844;52.496;13.482;2023-04-07T10:25:05;101786.28;;;6.75;49.57
53932;BME280;39844;52.496;13.482;2023-04-07T10:30:15;101771.97;;;6.91;50.01
53932;BME280;39844;52.496;13.482;2023-04-07T10:32:56;101780.94;;;7.02;49.64
53932;BME280;39844;52.496;13.482;2023-04-07T10:35:22;101781.22;;;7.11;50.38
53932;BME280;39844;52.496;13.482;2023-04-07T10:38:16;101779.69;;;7.19;50.76
53932;BME280;39844;52.496;13.482;2023-04-07T10:40:47;101771.09;;;7.23;50.79
53932;BME280;39844;52.496;13.482;2023-04-07T10:43:41;101782.34;;;7.22;50.71
53932;BME280;39844;52.496;13.482;2023-04-07T10:46:14;101787.34;;;7.13;51.57
53932;BME280;39844;52.496;13.482;2023-04-07T10:48:40;101781.22;;;7.11;52.21
53932;BME280;39844;52.496;13.482;2023-04-07T10:51:11;101783.75;;;7.10;52.06
53932;BME280;39844;52.496;13.482;2023-04-07T10:59:36;101773.13;;;7.02;51.90
53932;BME280;39844;52.496;13.482;2023-04-07T11:04:41;101773.13;;;7.02;55.11
53932;BME280;39844;52.496;13.482;2023-04-07T11:07:07;101777.53;;;7.05;58.23
53932;BME280;39844;52.496;13.482;2023-04-07T11:09:33;101776.63;;;7.03;59.50
53932;BME280;39844;52.496;13.482;2023-04-07T11:12:01;101774.91;;;7.05;61.34
53932;BME280;39844;52.496;13.482;2023-04-07T11:14:33;101774.78;;;6.98;62.11
53932;BME280;39844;52.496;13.482;2023-04-07T11:16:59;101773.91;;;6.99;63.29
53932;BME280;39844;52.496;13.482;2023-04-07T11:19:48;101776.63;;;7.03;64.19
53932;BME280;39844;52.496;13.482;2023-04-07T11:22:13;101766.09;;;6.99;65.50
53932;BME280;39844;52.496;13.482;2023-04-07T11:24:47;101769.59;;;7.00;65.36
53932;BME280;39844;52.496;13.482;2023-04-07T11:27:15;101769.75;;;7.06;67.68
53932;BME280;39844;52.496;13.482;2023-04-07T11:29:41;101772.47;;;7.09;67.53
53932;BME280;39844;52.496;13.482;2023-04-07T11:32:07;101771.50;;;7.07;69.11
53932;BME280;39844;52.496;13.482;2023-04-07T11:34:38;101771.50;;;7.07;71.23
53932;BME280;39844;52.496;13.482;2023-04-07T11:37:24;101782.31;;;6.88;71.23
53932;BME280;39844;52.496;13.482;2023-04-07T11:39:54;101774.88;;;6.72;72.42
53932;BME280;39844;52.496;13.482;2023-04-07T11:42:52;101775.44;;;6.62;74.18
53932;BME280;39844;52.496;13.482;2023-04-07T11:45:21;101774.44;;;6.57;75.29
53932;BME280;39844;52.496;13.482;2023-04-07T11:47:52;101768.19;;;6.50;75.46
53932;BME280;39844;52.496;13.482;2023-04-07T11:50:38;101771.50;;;6.46;76.76
53932;BME280;39844;52.496;13.482;2023-04-07T11:53:04;101772.41;;;6.47;77.98
53932;BME280;39844;52.496;13.482;2023-04-07T11:55:34;101773.28;;;6.47;77.89
53932;BME280;39844;52.496;13.482;2023-04-07T11:58:11;101773.50;;;6.55;78.94
53932;BME280;39844;52.496;13.482;2023-04-07T12:00:54;101772.59;;;6.53;78.49
53932;BME280;39844;52.496;13.482;2023-04-07T12:03:20;101768.31;;;6.55;79.30
53932;BME280;39844;52.496;13.482;2023-04-07T12:05:45;101769.13;;;6.54;80.36
53932;BME280;39844;52.496;13.482;2023-04-07T12:08:17;101769.13;;;6.54;79.78
53932;BME280;39844;52.496;13.482;2023-04-07T12:10:43;101761.28;;;6.52;80.85
53932;BME280;39844;52.496;13.482;2023-04-07T12:13:15;101769.00;;;6.49;81.28
53932;BME280;39844;52.496;13.482;2023-04-07T12:15:44;101773.91;;;6.38;81.23
53932;BME280;39844;52.496;13.482;2023-04-07T12:18:23;101778.88;;;6.31;81.27
53932;BME280;39844;52.496;13.482;2023-04-07T12:20:52;101777.97;;;6.29;83.74
53932;BME280;39844;52.496;13.482;2023-04-07T12:23:18;101770.00;;;6.24;82.45
53932;BME280;39844;52.496;13.482;2023-04-07T12:25:46;101774.31;;;6.24;84.27
53932;BME280;39844;52.496;13.482;2023-04-07T12:28:14;101774.63;;;6.33;85.43
53932;BME280;39844;52.496;13.482;2023-04-07T12:30:42;101769.69;;;6.44;85.06
53932;BME280;39844;52.496;13.482;2023-04-07T12:33:10;101771.38;;;6.42;82.42
53932;BME280;39844;52.496;13.482;2023-04-07T12:35:39;101771.44;;;6.43;83.21
53932;BME280;39844;52.496;13.482;2023-04-07T12:38:04;101771.38;;;6.42;82.56
53932;BME280;39844;52.496;13.482;2023-04-07T12:40:36;101768.69;;;6.38;83.04
53932;BME280;39844;52.496;13.482;2023-04-07T12:43:02;101774.06;;;6.43;83.22
53932;BME280;39844;52.496;13.482;2023-04-07T12:45:38;101766.34;;;6.48;83.69
53932;BME280;39844;52.496;13.482;2023-04-07T12:48:09;101768.97;;;6.48;83.58
53932;BME280;39844;52.496;13.482;2023-04-07T12:50:38;101758.00;;;6.59;85.10
53932;BME280;39844;52.496;13.482;2023-04-07T12:53:03;101763.09;;;6.56;82.66
53932;BME280;39844;52.496;13.482;2023-04-07T12:55:31;101755.34;;;6.58;82.38
53932;BME280;39844;52.496;13.482;2023-04-07T12:58:03;101762.28;;;6.57;81.63
53932;BME280;39844;52.496;13.482;2023-04-07T13:00:38;101761.38;;;6.55;81.93
53932;BME280;39844;52.496;13.482;2023-04-07T13:03:09;101758.75;;;6.55;81.48
53932;BME280;39844;52.496;13.482;2023-04-07T13:05:40;101758.97;;;6.63;82.17
53932;BME280;39844;52.496;13.482;2023-04-07T13:08:08;101759.91;;;6.65;82.29
53932;BME280;39844;52.496;13.482;2023-04-07T13:10:33;101770.22;;;6.60;81.00